createdAt,value
2022-11-12T00:03:17.181Z,93.60
2022-11-12T00:08:45.366Z,94.04
2022-11-12T00:14:23.018Z,94.18
2022-11-12T00:19:55.406Z,94.10
2022-11-12T00:25:27.174Z,94.39
2022-11-12T00:30:52.513Z,94.46
2022-11-12T00:36:19.962Z,94.79
2022-11-12T00:41:54.403Z,94.74
2022-11-12T00:47:20.578Z,94.65
2022-11-12T00:52:45.016Z,94.82
2022-11-12T00:58:11.425Z,95.05
2022-11-12T01:03:33.997Z,95.19
2022-11-12T01:09:00.615Z,95.17
2022-11-12T01:14:35.703Z,95.77
2022-11-12T01:20:04.050Z,95.62
2022-11-12T01:25:27.030Z,95.44
2022-11-12T01:30:54.484Z,95.88
2022-11-12T01:36:19.282Z,95.98
2022-11-12T01:41:47.905Z,95.89
2022-11-12T01:47:28.246Z,96.67
2022-11-12T01:52:57.706Z,96.42
2022-11-12T01:58:24.889Z,96.65
2022-11-12T02:04:00.216Z,97.02
2022-11-12T02:09:27.048Z,96.77
2022-11-12T02:14:52.153Z,97.05
2022-11-12T02:20:19.720Z,96.72
2022-11-12T02:25:45.141Z,96.89
2022-11-12T02:31:19.366Z,97.36
2022-11-12T02:36:53.571Z,97.06
2022-11-12T02:42:38.719Z,97.01
2022-11-12T02:48:04.653Z,97.39
2022-11-12T02:53:29.798Z,97.28
2022-11-12T02:58:54.898Z,97.07
2022-11-12T03:04:17.999Z,97.28
2022-11-12T03:09:43.184Z,97.29
2022-11-12T03:15:31.982Z,97.14
2022-11-12T03:20:55.551Z,96.65
2022-11-12T03:26:22.481Z,97.08
2022-11-12T03:31:51.158Z,97.18
2022-11-12T03:37:22.742Z,96.98
2022-11-12T03:42:50.832Z,96.56
2022-11-12T03:48:19.264Z,97.02
2022-11-12T03:53:48.653Z,96.84
2022-11-12T03:59:11.516Z,96.69
2022-11-12T04:04:58.699Z,96.60
2022-11-12T04:10:23.702Z,96.83
2022-11-12T04:16:15.915Z,97.45
2022-11-12T04:21:54.017Z,96.60
2022-11-12T04:27:23.420Z,96.86
2022-11-12T04:32:52.310Z,97.10
2022-11-12T04:38:25.741Z,97.73
2022-11-12T04:44:05.597Z,98.17
2022-11-12T04:49:31.168Z,97.59
2022-11-12T04:55:02.658Z,97.88
2022-11-12T05:00:26.041Z,98.30
2022-11-12T05:05:54.302Z,98.91
2022-11-12T05:11:25.177Z,98.54
2022-11-12T05:16:49.515Z,99.82
2022-11-12T05:22:27.410Z,99.87
2022-11-12T05:28:01.853Z,100.00
2022-11-12T05:33:24.504Z,100.00
2022-11-12T05:38:50.997Z,100.00
2022-11-12T05:44:15.164Z,100.00
2022-11-12T05:49:40.239Z,100.00
2022-11-12T05:55:04.409Z,100.00
2022-11-12T06:00:30.853Z,100.00
2022-11-12T06:05:57.677Z,100.00
2022-11-12T06:11:21.912Z,100.00
2022-11-12T06:22:31.734Z,100.00
2022-11-12T06:27:57.193Z,100.00
2022-11-12T06:33:21.641Z,100.00
2022-11-12T06:38:57.176Z,100.00
2022-11-12T06:44:22.664Z,100.00
2022-11-12T06:49:50.776Z,100.00
2022-11-12T06:55:15.443Z,100.00
2022-11-12T07:00:45.538Z,100.00
2022-11-12T07:06:13.977Z,100.00
2022-11-12T07:11:37.169Z,100.00
2022-11-12T07:17:07.448Z,100.00
2022-11-12T07:22:35.981Z,100.00
2022-11-12T07:28:00.392Z,100.00
2022-11-12T07:33:37.678Z,100.00
2022-11-12T07:39:06.584Z,100.00
2022-11-12T07:44:31.782Z,100.00
2022-11-12T07:49:54.816Z,100.00
2022-11-12T07:55:20.532Z,100.00
2022-11-12T08:00:43.939Z,100.00
2022-11-12T08:06:08.701Z,100.00
2022-11-12T08:11:42.554Z,100.00
2022-11-12T08:17:10.553Z,100.00
2022-11-12T08:22:35.169Z,100.00
2022-11-12T08:28:14.753Z,100.00
2022-11-12T08:33:45.045Z,100.00
2022-11-12T08:39:13.935Z,99.62
2022-11-12T08:44:50.421Z,96.00
2022-11-12T08:50:25.732Z,95.14
2022-11-12T08:55:48.659Z,94.47
2022-11-12T09:01:15.919Z,93.60
2022-11-12T09:06:54.084Z,91.96
2022-11-12T09:12:19.886Z,91.24
2022-11-12T09:17:46.570Z,90.29
2022-11-12T09:23:22.539Z,88.95
2022-11-12T09:28:50.515Z,89.69
2022-11-12T09:34:21.712Z,89.32
2022-11-12T09:39:47.039Z,89.00
2022-11-12T09:45:22.055Z,87.77
2022-11-12T09:51:07.251Z,85.89
2022-11-12T09:57:18.156Z,84.88
2022-11-12T10:02:46.851Z,84.65
2022-11-12T10:08:32.689Z,85.00
2022-11-12T10:14:10.124Z,84.27
2022-11-12T10:19:49.629Z,83.27
2022-11-12T10:25:45.655Z,82.24
2022-11-12T10:31:17.665Z,82.92
2022-11-12T10:36:48.989Z,82.90
2022-11-12T10:42:18.659Z,81.42
2022-11-12T10:47:46.680Z,81.58
2022-11-12T10:53:16.715Z,81.25
2022-11-12T10:58:54.358Z,80.64
2022-11-12T11:04:33.013Z,81.46
2022-11-12T11:10:03.524Z,81.93
2022-11-12T11:15:30.407Z,81.22
2022-11-12T11:21:04.822Z,79.11
2022-11-12T11:26:45.078Z,79.28
2022-11-12T11:32:18.698Z,78.57
2022-11-12T11:37:58.616Z,79.91
2022-11-12T11:43:50.931Z,77.53
2022-11-12T11:49:33.255Z,76.32
2022-11-12T11:55:21.525Z,76.39
2022-11-12T12:01:00.752Z,76.53
2022-11-12T12:06:28.599Z,78.45
2022-11-12T12:12:01.626Z,77.68
2022-11-12T12:17:42.156Z,77.83
2022-11-12T12:23:18.480Z,77.50
2022-11-12T12:28:47.534Z,77.78
2022-11-12T12:34:24.091Z,76.04
2022-11-12T12:39:58.994Z,75.59
2022-11-12T12:45:39.645Z,75.47
2022-11-12T12:51:08.019Z,76.11
2022-11-12T12:56:50.853Z,74.53
2022-11-12T13:02:26.547Z,75.12
2022-11-12T13:07:56.327Z,75.36
2022-11-12T13:13:39.608Z,73.90
2022-11-12T13:19:29.167Z,74.67
2022-11-12T13:25:08.990Z,74.51
2022-11-12T13:31:06.931Z,73.47
2022-11-12T13:36:33.281Z,74.85
2022-11-12T13:42:27.894Z,73.72
2022-11-12T13:47:56.276Z,76.03
2022-11-12T13:53:31.880Z,76.43
2022-11-12T13:59:11.988Z,78.67
2022-11-12T14:04:37.003Z,78.90
2022-11-12T14:10:10.728Z,80.18
2022-11-12T14:15:54.442Z,80.79
2022-11-12T14:21:32.440Z,79.25
2022-11-12T14:27:02.449Z,80.40
2022-11-12T14:32:30.165Z,81.46
2022-11-12T14:38:02.738Z,81.40
2022-11-12T14:43:41.599Z,82.55
2022-11-12T14:49:09.436Z,84.42
2022-11-12T14:54:45.406Z,85.06
2022-11-12T15:00:22.965Z,84.83
2022-11-12T15:06:00.127Z,86.60
2022-11-12T15:11:33.143Z,86.96
2022-11-12T15:17:00.819Z,88.04
2022-11-12T15:22:35.451Z,88.63
2022-11-12T15:28:28.345Z,89.79
2022-11-12T15:33:57.541Z,89.68
2022-11-12T15:39:28.439Z,90.66
2022-11-12T15:45:01.998Z,90.84
2022-11-12T15:50:45.302Z,91.62
2022-11-12T15:56:44.495Z,93.18
2022-11-12T16:02:13.261Z,93.43
2022-11-12T16:07:49.725Z,93.44
2022-11-12T16:13:26.642Z,94.58
2022-11-12T16:19:31.304Z,96.06
2022-11-12T16:24:55.368Z,95.34
2022-11-12T16:30:29.506Z,97.33
2022-11-12T16:36:01.514Z,97.83
2022-11-12T16:41:29.855Z,98.31
2022-11-12T16:46:57.711Z,98.40
2022-11-12T16:52:24.608Z,98.65
2022-11-12T16:57:53.178Z,99.25
2022-11-12T17:03:21.610Z,100.00
2022-11-12T17:08:48.539Z,99.98
2022-11-12T17:14:23.021Z,100.00
2022-11-12T17:19:57.064Z,100.00
2022-11-12T17:25:31.493Z,100.00
2022-11-12T17:31:05.511Z,100.00
2022-11-12T17:36:32.820Z,100.00
2022-11-12T17:42:16.207Z,99.36
2022-11-12T17:47:44.447Z,99.42
2022-11-12T17:53:18.593Z,100.00
2022-11-12T17:58:46.972Z,99.40
2022-11-12T18:04:23.496Z,99.47
2022-11-12T18:10:19.905Z,99.91
2022-11-12T18:15:47.220Z,100.00
2022-11-12T18:21:14.343Z,100.00
2022-11-12T18:26:51.899Z,100.00
2022-11-12T18:32:22.298Z,100.00
2022-11-12T18:37:46.575Z,100.00
2022-11-12T18:43:19.750Z,100.00
2022-11-12T18:48:58.613Z,100.00
2022-11-12T18:54:21.462Z,100.00
2022-11-12T18:59:51.798Z,100.00
2022-11-12T19:05:16.933Z,100.00
2022-11-12T19:10:42.158Z,100.00
2022-11-12T19:16:10.629Z,100.00
2022-11-12T19:21:37.287Z,100.00
2022-11-12T19:27:00.518Z,100.00
2022-11-12T19:32:25.014Z,100.00
2022-11-12T19:37:54.707Z,100.00
2022-11-12T19:43:18.581Z,100.00
2022-11-12T19:48:47.027Z,100.00
2022-11-12T19:54:18.398Z,100.00
2022-11-12T19:59:46.621Z,100.00
2022-11-12T20:05:12.641Z,100.00
2022-11-12T20:10:40.321Z,100.00
2022-11-12T20:16:10.778Z,100.00
2022-11-12T20:21:36.787Z,100.00
2022-11-12T20:27:07.614Z,100.00
2022-11-12T20:32:34.533Z,100.00
2022-11-12T20:37:58.469Z,100.00
2022-11-12T20:43:43.251Z,100.00
2022-11-12T20:49:19.141Z,100.00
2022-11-12T20:54:52.854Z,100.00
2022-11-12T21:00:25.087Z,100.00
2022-11-12T21:05:49.672Z,100.00
2022-11-12T21:11:22.128Z,100.00
2022-11-12T21:16:50.196Z,100.00
2022-11-12T21:22:26.083Z,100.00
2022-11-12T21:27:48.534Z,100.00
2022-11-12T21:33:15.920Z,100.00
2022-11-12T21:38:40.286Z,100.00
2022-11-12T21:44:16.991Z,100.00
2022-11-12T21:49:48.761Z,100.00
2022-11-12T21:55:17.549Z,100.00
2022-11-12T22:00:42.972Z,100.00
2022-11-12T22:06:34.274Z,100.00
2022-11-12T22:12:00.966Z,100.00
2022-11-12T22:17:32.772Z,100.00
2022-11-12T22:22:59.974Z,100.00
2022-11-12T22:28:26.449Z,100.00
2022-11-12T22:33:50.019Z,100.00
2022-11-12T22:39:22.333Z,100.00
2022-11-12T22:45:10.424Z,100.00
2022-11-12T22:50:34.349Z,100.00
2022-11-12T22:56:18.250Z,100.00
2022-11-12T23:01:41.823Z,100.00
2022-11-12T23:07:11.417Z,100.00
2022-11-12T23:12:50.516Z,100.00
2022-11-12T23:18:14.599Z,100.00
2022-11-12T23:23:41.768Z,100.00
2022-11-12T23:29:18.401Z,100.00
2022-11-12T23:34:52.120Z,100.00
2022-11-12T23:40:31.109Z,100.00
2022-11-12T23:46:06.182Z,100.00
2022-11-12T23:51:33.798Z,100.00
2022-11-12T23:57:01.622Z,100.00
